sensor_id;sensor_type;location;lat;lon;timestamp;P1;durP1;ratioP1;P2;durP2;ratioP2
529;SDS011;251;48.704;9.210;2023-08-06T00:00:41;4.27;;;2.37;;
529;SDS011;251;48.704;9.210;2023-08-06T00:03:08;3.20;;;2.17;;
529;SDS011;251;48.704;9.210;2023-08-06T00:05:35;2.80;;;2.10;;
529;SDS011;251;48.704;9.210;2023-08-06T00:08:02;3.13;;;2.53;;
529;SDS011;251;48.704;9.210;2023-08-06T00:10:29;2.97;;;2.60;;
529;SDS011;251;48.704;9.210;2023-08-06T00:12:56;3.30;;;2.70;;
529;SDS011;251;48.704;9.210;2023-08-06T00:15:22;3.57;;;2.60;;
529;SDS011;251;48.704;9.210;2023-08-06T00:17:50;4.30;;;2.83;;
529;SDS011;251;48.704;9.210;2023-08-06T00:20:17;3.40;;;2.60;;
529;SDS011;251;48.704;9.210;2023-08-06T00:22:44;4.37;;;3.10;;
529;SDS011;251;48.704;9.210;2023-08-06T00:25:11;3.30;;;2.40;;
529;SDS011;251;48.704;9.210;2023-08-06T00:27:38;3.37;;;2.40;;
529;SDS011;251;48.704;9.210;2023-08-06T00:30:06;2.97;;;2.07;;
529;SDS011;251;48.704;9.210;2023-08-06T00:32:33;4.50;;;3.03;;
529;SDS011;251;48.704;9.210;2023-08-06T00:35:01;3.83;;;2.47;;
529;SDS011;251;48.704;9.210;2023-08-06T00:37:29;4.53;;;3.20;;
529;SDS011;251;48.704;9.210;2023-08-06T00:39:56;3.57;;;2.73;;
529;SDS011;251;48.704;9.210;2023-08-06T00:42:23;3.53;;;2.93;;
529;SDS011;251;48.704;9.210;2023-08-06T00:44:49;5.23;;;2.93;;
529;SDS011;251;48.704;9.210;2023-08-06T00:47:16;3.07;;;2.40;;
529;SDS011;251;48.704;9.210;2023-08-06T00:49:44;2.90;;;1.97;;
529;SDS011;251;48.704;9.210;2023-08-06T00:52:12;3.50;;;2.23;;
529;SDS011;251;48.704;9.210;2023-08-06T00:54:39;3.07;;;2.40;;
529;SDS011;251;48.704;9.210;2023-08-06T00:57:07;3.13;;;2.33;;
529;SDS011;251;48.704;9.210;2023-08-06T00:59:34;3.30;;;2.33;;
529;SDS011;251;48.704;9.210;2023-08-06T01:02:01;4.20;;;2.63;;
529;SDS011;251;48.704;9.210;2023-08-06T01:04:28;2.93;;;2.30;;
529;SDS011;251;48.704;9.210;2023-08-06T01:06:57;2.70;;;2.03;;
529;SDS011;251;48.704;9.210;2023-08-06T01:09:36;2.77;;;1.90;;
529;SDS011;251;48.704;9.210;2023-08-06T01:12:17;3.50;;;2.80;;
529;SDS011;251;48.704;9.210;2023-08-06T01:14:52;3.60;;;2.27;;
529;SDS011;251;48.704;9.210;2023-08-06T01:17:27;4.03;;;2.20;;
529;SDS011;251;48.704;9.210;2023-08-06T01:19:55;14.13;;;2.20;;
529;SDS011;251;48.704;9.210;2023-08-06T01:22:24;4.53;;;2.63;;
529;SDS011;251;48.704;9.210;2023-08-06T01:24:50;4.60;;;2.90;;
529;SDS011;251;48.704;9.210;2023-08-06T01:27:20;4.50;;;2.40;;
529;SDS011;251;48.704;9.210;2023-08-06T01:29:53;4.73;;;2.60;;
529;SDS011;251;48.704;9.210;2023-08-06T01:32:26;2.97;;;1.83;;
529;SDS011;251;48.704;9.210;2023-08-06T01:34:55;3.23;;;2.20;;
529;SDS011;251;48.704;9.210;2023-08-06T01:37:24;3.27;;;2.40;;
529;SDS011;251;48.704;9.210;2023-08-06T01:39:52;2.10;;;1.70;;
529;SDS011;251;48.704;9.210;2023-08-06T01:42:19;2.37;;;1.77;;
529;SDS011;251;48.704;9.210;2023-08-06T01:44:46;3.37;;;2.13;;
529;SDS011;251;48.704;9.210;2023-08-06T01:47:13;3.30;;;1.93;;
529;SDS011;251;48.704;9.210;2023-08-06T01:49:39;3.80;;;2.07;;
529;SDS011;251;48.704;9.210;2023-08-06T01:52:07;3.10;;;2.13;;
529;SDS011;251;48.704;9.210;2023-08-06T01:54:35;4.90;;;2.60;;
529;SDS011;251;48.704;9.210;2023-08-06T01:57:03;3.47;;;1.90;;
529;SDS011;251;48.704;9.210;2023-08-06T01:59:31;3.23;;;2.63;;
529;SDS011;251;48.704;9.210;2023-08-06T02:01:57;3.10;;;2.30;;
529;SDS011;251;48.704;9.210;2023-08-06T02:04:24;2.60;;;1.90;;
529;SDS011;251;48.704;9.210;2023-08-06T02:06:51;3.63;;;2.27;;
529;SDS011;251;48.704;9.210;2023-08-06T02:09:18;3.67;;;1.87;;
529;SDS011;251;48.704;9.210;2023-08-06T02:11:46;2.50;;;1.70;;
529;SDS011;251;48.704;9.210;2023-08-06T02:14:13;2.90;;;1.53;;
529;SDS011;251;48.704;9.210;2023-08-06T02:16:39;2.17;;;1.37;;
529;SDS011;251;48.704;9.210;2023-08-06T02:19:06;2.60;;;1.60;;
529;SDS011;251;48.704;9.210;2023-08-06T02:21:33;3.53;;;1.80;;
529;SDS011;251;48.704;9.210;2023-08-06T02:24:00;2.23;;;1.80;;
529;SDS011;251;48.704;9.210;2023-08-06T02:26:27;3.33;;;1.90;;
529;SDS011;251;48.704;9.210;2023-08-06T02:28:56;3.40;;;1.83;;
529;SDS011;251;48.704;9.210;2023-08-06T02:31:23;2.20;;;1.53;;
529;SDS011;251;48.704;9.210;2023-08-06T02:33:49;2.83;;;1.60;;
529;SDS011;251;48.704;9.210;2023-08-06T02:36:17;2.10;;;1.43;;
529;SDS011;251;48.704;9.210;2023-08-06T02:38:43;1.80;;;1.20;;
529;SDS011;251;48.704;9.210;2023-08-06T02:41:10;2.10;;;1.30;;
529;SDS011;251;48.704;9.210;2023-08-06T02:43:37;1.70;;;1.20;;
529;SDS011;251;48.704;9.210;2023-08-06T02:46:05;2.23;;;1.47;;
529;SDS011;251;48.704;9.210;2023-08-06T02:48:33;2.00;;;1.73;;
529;SDS011;251;48.704;9.210;2023-08-06T02:50:59;2.97;;;1.67;;
529;SDS011;251;48.704;9.210;2023-08-06T02:53:28;2.10;;;1.60;;
529;SDS011;251;48.704;9.210;2023-08-06T02:55:57;2.07;;;1.33;;
529;SDS011;251;48.704;9.210;2023-08-06T02:58:31;2.63;;;1.70;;
529;SDS011;251;48.704;9.210;2023-08-06T03:01:11;2.07;;;1.40;;
529;SDS011;251;48.704;9.210;2023-08-06T03:03:47;2.20;;;1.50;;
529;SDS011;251;48.704;9.210;2023-08-06T03:06:20;1.90;;;1.40;;
529;SDS011;251;48.704;9.210;2023-08-06T03:08:50;2.40;;;1.47;;
529;SDS011;251;48.704;9.210;2023-08-06T03:11:17;2.43;;;1.30;;
529;SDS011;251;48.704;9.210;2023-08-06T03:13:44;2.43;;;1.43;;
529;SDS011;251;48.704;9.210;2023-08-06T03:16:12;2.03;;;1.30;;
529;SDS011;251;48.704;9.210;2023-08-06T03:18:39;1.80;;;1.17;;
529;SDS011;251;48.704;9.210;2023-08-06T03:21:08;3.00;;;1.60;;
529;SDS011;251;48.704;9.210;2023-08-06T03:23:35;2.43;;;1.80;;
529;SDS011;251;48.704;9.210;2023-08-06T03:26:02;2.00;;;1.30;;
529;SDS011;251;48.704;9.210;2023-08-06T03:28:30;1.93;;;1.43;;
529;SDS011;251;48.704;9.210;2023-08-06T03:30:59;2.30;;;1.53;;
529;SDS011;251;48.704;9.210;2023-08-06T03:33:31;4.90;;;1.60;;
529;SDS011;251;48.704;9.210;2023-08-06T03:35:59;2.70;;;1.80;;
529;SDS011;251;48.704;9.210;2023-08-06T03:38:27;1.90;;;1.10;;
529;SDS011;251;48.704;9.210;2023-08-06T03:40:54;1.90;;;1.40;;
529;SDS011;251;48.704;9.210;2023-08-06T03:43:21;3.10;;;1.53;;
529;SDS011;251;48.704;9.210;2023-08-06T03:45:48;4.70;;;1.90;;
529;SDS011;251;48.704;9.210;2023-08-06T03:48:15;2.00;;;1.47;;
529;SDS011;251;48.704;9.210;2023-08-06T03:50:43;2.40;;;1.63;;
529;SDS011;251;48.704;9.210;2023-08-06T03:53:13;7.23;;;1.50;;
529;SDS011;251;48.704;9.210;2023-08-06T03:55:39;2.37;;;1.33;;
529;SDS011;251;48.704;9.210;2023-08-06T03:58:06;2.60;;;1.30;;
529;SDS011;251;48.704;9.210;2023-08-06T04:00:33;1.60;;;1.07;;
529;SDS011;251;48.704;9.210;2023-08-06T04:03:00;1.90;;;1.50;;
529;SDS011;251;48.704;9.210;2023-08-06T04:05:30;6.10;;;1.03;;
529;SDS011;251;48.704;9.210;2023-08-06T04:07:59;2.10;;;1.10;;
529;SDS011;251;48.704;9.210;2023-08-06T04:10:25;2.17;;;1.33;;
529;SDS011;251;48.704;9.210;2023-08-06T04:12:52;8.33;;;3.30;;
529;SDS011;251;48.704;9.210;2023-08-06T04:15:19;1.90;;;0.90;;
529;SDS011;251;48.704;9.210;2023-08-06T04:17:46;1.53;;;0.90;;
529;SDS011;251;48.704;9.210;2023-08-06T04:20:13;5.10;;;1.40;;
529;SDS011;251;48.704;9.210;2023-08-06T04:22:40;2.03;;;0.83;;
529;SDS011;251;48.704;9.210;2023-08-06T04:25:08;1.50;;;0.80;;
529;SDS011;251;48.704;9.210;2023-08-06T04:27:35;1.77;;;1.00;;
529;SDS011;251;48.704;9.210;2023-08-06T04:30:07;2.50;;;0.90;;
529;SDS011;251;48.704;9.210;2023-08-06T04:32:37;1.97;;;1.10;;
529;SDS011;251;48.704;9.210;2023-08-06T04:35:04;1.87;;;1.07;;
529;SDS011;251;48.704;9.210;2023-08-06T04:37:31;1.97;;;1.20;;
529;SDS011;251;48.704;9.210;2023-08-06T04:39:58;4.10;;;1.70;;
529;SDS011;251;48.704;9.210;2023-08-06T04:42:26;1.40;;;0.80;;
529;SDS011;251;48.704;9.210;2023-08-06T04:44:53;2.57;;;1.00;;
529;SDS011;251;48.704;9.210;2023-08-06T04:47:20;1.53;;;0.80;;
529;SDS011;251;48.704;9.210;2023-08-06T04:49:47;1.90;;;1.10;;
529;SDS011;251;48.704;9.210;2023-08-06T04:52:13;1.40;;;0.73;;
529;SDS011;251;48.704;9.210;2023-08-06T04:54:40;1.83;;;1.00;;
529;SDS011;251;48.704;9.210;2023-08-06T04:57:07;4.60;;;1.10;;
529;SDS011;251;48.704;9.210;2023-08-06T04:59:35;1.63;;;0.87;;
529;SDS011;251;48.704;9.210;2023-08-06T05:02:02;1.80;;;1.00;;
529;SDS011;251;48.704;9.210;2023-08-06T05:04:29;1.90;;;1.30;;
529;SDS011;251;48.704;9.210;2023-08-06T05:06:56;2.40;;;0.93;;
529;SDS011;251;48.704;9.210;2023-08-06T05:09:23;2.07;;;0.90;;
529;SDS011;251;48.704;9.210;2023-08-06T05:11:50;1.70;;;0.70;;
529;SDS011;251;48.704;9.210;2023-08-06T05:14:16;1.30;;;0.70;;
529;SDS011;251;48.704;9.210;2023-08-06T05:16:45;1.30;;;0.70;;
529;SDS011;251;48.704;9.210;2023-08-06T05:19:11;2.53;;;0.90;;
529;SDS011;251;48.704;9.210;2023-08-06T05:21:38;1.40;;;0.70;;
529;SDS011;251;48.704;9.210;2023-08-06T05:24:05;1.80;;;0.90;;
529;SDS011;251;48.704;9.210;2023-08-06T05:26:32;1.40;;;0.70;;
529;SDS011;251;48.704;9.210;2023-08-06T05:28:58;1.33;;;0.70;;
529;SDS011;251;48.704;9.210;2023-08-06T05:31:25;1.93;;;0.80;;
529;SDS011;251;48.704;9.210;2023-08-06T05:33:55;2.60;;;0.73;;
529;SDS011;251;48.704;9.210;2023-08-06T05:36:22;1.30;;;0.60;;
529;SDS011;251;48.704;9.210;2023-08-06T05:38:48;2.07;;;0.90;;
529;SDS011;251;48.704;9.210;2023-08-06T05:41:15;1.27;;;0.63;;
529;SDS011;251;48.704;9.210;2023-08-06T05:43:42;2.53;;;0.80;;
529;SDS011;251;48.704;9.210;2023-08-06T05:46:09;1.67;;;0.80;;
529;SDS011;251;48.704;9.210;2023-08-06T05:48:35;1.40;;;0.70;;
529;SDS011;251;48.704;9.210;2023-08-06T05:51:04;1.20;;;0.50;;
529;SDS011;251;48.704;9.210;2023-08-06T05:53:30;1.40;;;0.70;;
529;SDS011;251;48.704;9.210;2023-08-06T05:55:57;2.03;;;1.10;;
529;SDS011;251;48.704;9.210;2023-08-06T05:58:24;1.27;;;0.60;;
529;SDS011;251;48.704;9.210;2023-08-06T06:00:53;1.30;;;0.60;;
529;SDS011;251;48.704;9.210;2023-08-06T06:03:20;2.13;;;0.60;;
529;SDS011;251;48.704;9.210;2023-08-06T06:05:47;1.20;;;0.60;;
529;SDS011;251;48.704;9.210;2023-08-06T06:08:15;2.13;;;0.70;;
529;SDS011;251;48.704;9.210;2023-08-06T06:10:41;1.43;;;0.70;;
529;SDS011;251;48.704;9.210;2023-08-06T06:13:08;1.43;;;0.80;;
529;SDS011;251;48.704;9.210;2023-08-06T06:15:35;1.60;;;0.67;;
529;SDS011;251;48.704;9.210;2023-08-06T06:18:02;1.40;;;0.70;;
529;SDS011;251;48.704;9.210;2023-08-06T06:20:31;2.80;;;0.70;;
529;SDS011;251;48.704;9.210;2023-08-06T06:22:58;1.97;;;0.70;;
529;SDS011;251;48.704;9.210;2023-08-06T06:25:26;1.80;;;1.17;;
529;SDS011;251;48.704;9.210;2023-08-06T06:27:53;2.13;;;1.00;;
529;SDS011;251;48.704;9.210;2023-08-06T06:30:19;1.47;;;0.80;;
529;SDS011;251;48.704;9.210;2023-08-06T06:32:47;1.30;;;0.60;;
529;SDS011;251;48.704;9.210;2023-08-06T06:35:13;1.30;;;0.60;;
529;SDS011;251;48.704;9.210;2023-08-06T06:37:40;1.20;;;0.60;;
529;SDS011;251;48.704;9.210;2023-08-06T06:40:07;1.93;;;1.10;;
529;SDS011;251;48.704;9.210;2023-08-06T06:42:35;1.50;;;0.70;;
529;SDS011;251;48.704;9.210;2023-08-06T06:45:06;1.30;;;0.70;;
529;SDS011;251;48.704;9.210;2023-08-06T06:47:34;2.07;;;1.00;;
529;SDS011;251;48.704;9.210;2023-08-06T06:50:01;1.63;;;0.87;;
529;SDS011;251;48.704;9.210;2023-08-06T06:52:29;1.30;;;0.57;;
529;SDS011;251;48.704;9.210;2023-08-06T06:54:55;1.70;;;0.70;;
529;SDS011;251;48.704;9.210;2023-08-06T06:57:22;1.87;;;0.60;;
529;SDS011;251;48.704;9.210;2023-08-06T06:59:50;3.47;;;0.60;;
529;SDS011;251;48.704;9.210;2023-08-06T07:02:17;1.30;;;0.60;;
529;SDS011;251;48.704;9.210;2023-08-06T07:04:44;1.40;;;0.60;;
529;SDS011;251;48.704;9.210;2023-08-06T07:07:11;1.57;;;0.90;;
529;SDS011;251;48.704;9.210;2023-08-06T07:09:38;1.43;;;0.70;;
529;SDS011;251;48.704;9.210;2023-08-06T07:12:05;1.53;;;0.80;;
529;SDS011;251;48.704;9.210;2023-08-06T07:14:32;1.63;;;1.00;;
529;SDS011;251;48.704;9.210;2023-08-06T07:17:00;1.40;;;0.60;;
529;SDS011;251;48.704;9.210;2023-08-06T07:19:27;1.30;;;0.60;;
529;SDS011;251;48.704;9.210;2023-08-06T07:21:54;1.20;;;0.60;;
529;SDS011;251;48.704;9.210;2023-08-06T07:24:21;1.20;;;0.50;;
529;SDS011;251;48.704;9.210;2023-08-06T07:26:48;2.03;;;0.60;;
529;SDS011;251;48.704;9.210;2023-08-06T07:29:15;1.40;;;0.70;;
529;SDS011;251;48.704;9.210;2023-08-06T07:31:46;1.30;;;0.60;;
529;SDS011;251;48.704;9.210;2023-08-06T07:34:14;1.30;;;0.70;;
529;SDS011;251;48.704;9.210;2023-08-06T07:36:43;2.20;;;2.00;;
529;SDS011;251;48.704;9.210;2023-08-06T07:39:10;1.60;;;0.60;;
529;SDS011;251;48.704;9.210;2023-08-06T07:41:37;1.40;;;0.60;;
529;SDS011;251;48.704;9.210;2023-08-06T07:44:04;1.20;;;0.50;;
529;SDS011;251;48.704;9.210;2023-08-06T07:46:31;3.70;;;0.60;;
529;SDS011;251;48.704;9.210;2023-08-06T07:48:57;1.20;;;0.50;;
529;SDS011;251;48.704;9.210;2023-08-06T07:51:26;1.20;;;0.50;;
529;SDS011;251;48.704;9.210;2023-08-06T07:53:52;1.20;;;0.50;;
529;SDS011;251;48.704;9.210;2023-08-06T07:56:19;1.23;;;0.50;;
529;SDS011;251;48.704;9.210;2023-08-06T07:58:46;1.37;;;0.70;;
529;SDS011;251;48.704;9.210;2023-08-06T08:01:13;1.20;;;0.50;;
529;SDS011;251;48.704;9.210;2023-08-06T08:03:40;1.20;;;0.50;;
529;SDS011;251;48.704;9.210;2023-08-06T08:06:07;1.47;;;0.60;;
529;SDS011;251;48.704;9.210;2023-08-06T08:08:35;1.20;;;0.50;;
529;SDS011;251;48.704;9.210;2023-08-06T08:11:03;1.20;;;0.50;;
529;SDS011;251;48.704;9.210;2023-08-06T08:13:31;1.20;;;0.50;;
529;SDS011;251;48.704;9.210;2023-08-06T08:15:58;1.30;;;0.60;;
529;SDS011;251;48.704;9.210;2023-08-06T08:18:25;1.20;;;0.50;;
529;SDS011;251;48.704;9.210;2023-08-06T08:20:52;1.20;;;0.50;;
529;SDS011;251;48.704;9.210;2023-08-06T08:23:19;1.20;;;0.60;;
529;SDS011;251;48.704;9.210;2023-08-06T08:25:47;1.20;;;0.50;;
529;SDS011;251;48.704;9.210;2023-08-06T08:28:14;1.20;;;0.50;;
529;SDS011;251;48.704;9.210;2023-08-06T08:30:41;1.23;;;0.60;;
529;SDS011;251;48.704;9.210;2023-08-06T08:33:08;1.20;;;0.50;;
529;SDS011;251;48.704;9.210;2023-08-06T08:35:35;1.60;;;0.70;;
529;SDS011;251;48.704;9.210;2023-08-06T08:38:02;1.20;;;0.50;;
529;SDS011;251;48.704;9.210;2023-08-06T08:40:30;1.63;;;0.70;;
529;SDS011;251;48.704;9.210;2023-08-06T08:42:59;1.20;;;0.50;;
529;SDS011;251;48.704;9.210;2023-08-06T08:45:28;5.90;;;1.37;;
529;SDS011;251;48.704;9.210;2023-08-06T08:47:56;1.20;;;0.50;;
529;SDS011;251;48.704;9.210;2023-08-06T08:50:23;1.40;;;0.50;;
529;SDS011;251;48.704;9.210;2023-08-06T08:52:50;1.20;;;0.50;;
529;SDS011;251;48.704;9.210;2023-08-06T08:55:19;1.20;;;0.50;;
529;SDS011;251;48.704;9.210;2023-08-06T08:57:48;1.20;;;0.50;;
529;SDS011;251;48.704;9.210;2023-08-06T09:00:16;1.20;;;0.60;;
529;SDS011;251;48.704;9.210;2023-08-06T09:02:42;1.20;;;0.50;;
529;SDS011;251;48.704;9.210;2023-08-06T09:05:11;1.20;;;0.50;;
529;SDS011;251;48.704;9.210;2023-08-06T09:07:41;2.33;;;0.60;;
529;SDS011;251;48.704;9.210;2023-08-06T09:10:10;1.20;;;0.50;;
529;SDS011;251;48.704;9.210;2023-08-06T09:12:38;1.93;;;0.70;;
529;SDS011;251;48.704;9.210;2023-08-06T09:15:06;1.30;;;0.50;;
529;SDS011;251;48.704;9.210;2023-08-06T09:17:35;1.20;;;0.50;;
529;SDS011;251;48.704;9.210;2023-08-06T09:20:08;1.20;;;0.50;;
529;SDS011;251;48.704;9.210;2023-08-06T09:22:37;1.20;;;0.60;;
529;SDS011;251;48.704;9.210;2023-08-06T09:25:04;1.20;;;0.60;;
529;SDS011;251;48.704;9.210;2023-08-06T09:27:34;1.30;;;0.60;;
529;SDS011;251;48.704;9.210;2023-08-06T09:30:02;1.20;;;0.50;;
529;SDS011;251;48.704;9.210;2023-08-06T09:32:37;1.30;;;0.53;;
529;SDS011;251;48.704;9.210;2023-08-06T09:35:14;1.20;;;0.50;;
529;SDS011;251;48.704;9.210;2023-08-06T09:37:42;3.03;;;0.67;;
529;SDS011;251;48.704;9.210;2023-08-06T09:40:23;1.83;;;0.60;;
529;SDS011;251;48.704;9.210;2023-08-06T09:42:54;1.30;;;0.53;;
529;SDS011;251;48.704;9.210;2023-08-06T09:45:20;1.30;;;0.50;;
529;SDS011;251;48.704;9.210;2023-08-06T09:47:49;1.27;;;0.53;;
529;SDS011;251;48.704;9.210;2023-08-06T09:50:16;1.33;;;0.63;;
529;SDS011;251;48.704;9.210;2023-08-06T09:52:44;1.30;;;0.70;;
529;SDS011;251;48.704;9.210;2023-08-06T09:55:12;1.87;;;0.90;;
529;SDS011;251;48.704;9.210;2023-08-06T09:57:40;1.80;;;0.90;;
529;SDS011;251;48.704;9.210;2023-08-06T10:00:07;1.60;;;0.60;;
529;SDS011;251;48.704;9.210;2023-08-06T10:02:38;1.20;;;0.50;;
529;SDS011;251;48.704;9.210;2023-08-06T10:05:07;1.20;;;0.50;;
529;SDS011;251;48.704;9.210;2023-08-06T10:07:35;1.60;;;0.60;;
529;SDS011;251;48.704;9.210;2023-08-06T10:10:04;1.20;;;0.50;;
529;SDS011;251;48.704;9.210;2023-08-06T10:12:32;1.50;;;0.60;;
529;SDS011;251;48.704;9.210;2023-08-06T10:15:03;1.20;;;0.50;;
529;SDS011;251;48.704;9.210;2023-08-06T10:17:34;1.20;;;0.50;;
529;SDS011;251;48.704;9.210;2023-08-06T10:20:02;1.20;;;0.60;;
529;SDS011;251;48.704;9.210;2023-08-06T10:22:33;1.20;;;0.50;;
529;SDS011;251;48.704;9.210;2023-08-06T10:25:01;1.30;;;1.00;;
529;SDS011;251;48.704;9.210;2023-08-06T10:27:31;1.20;;;0.50;;
529;SDS011;251;48.704;9.210;2023-08-06T10:32:49;1.20;;;0.50;;
529;SDS011;251;48.704;9.210;2023-08-06T10:35:29;1.20;;;0.50;;
529;SDS011;251;48.704;9.210;2023-08-06T10:37:59;1.20;;;0.50;;
529;SDS011;251;48.704;9.210;2023-08-06T10:40:29;1.20;;;0.50;;
529;SDS011;251;48.704;9.210;2023-08-06T10:43:01;1.37;;;0.50;;
529;SDS011;251;48.704;9.210;2023-08-06T10:45:28;1.20;;;0.50;;
529;SDS011;251;48.704;9.210;2023-08-06T10:47:56;1.20;;;0.50;;
529;SDS011;251;48.704;9.210;2023-08-06T10:50:23;1.30;;;0.60;;
529;SDS011;251;48.704;9.210;2023-08-06T10:52:50;1.20;;;0.50;;
529;SDS011;251;48.704;9.210;2023-08-06T10:55:27;1.20;;;0.60;;
529;SDS011;251;48.704;9.210;2023-08-06T10:57:55;2.10;;;0.87;;
529;SDS011;251;48.704;9.210;2023-08-06T11:00:22;1.20;;;0.50;;
529;SDS011;251;48.704;9.210;2023-08-06T11:02:51;1.20;;;0.60;;
529;SDS011;251;48.704;9.210;2023-08-06T11:05:19;1.30;;;0.70;;
529;SDS011;251;48.704;9.210;2023-08-06T11:07:46;1.20;;;0.50;;
529;SDS011;251;48.704;9.210;2023-08-06T11:10:14;1.20;;;0.50;;
529;SDS011;251;48.704;9.210;2023-08-06T11:12:42;1.20;;;0.60;;
529;SDS011;251;48.704;9.210;2023-08-06T11:15:09;1.20;;;0.50;;
529;SDS011;251;48.704;9.210;2023-08-06T11:17:37;1.20;;;0.50;;
529;SDS011;251;48.704;9.210;2023-08-06T11:20:06;1.20;;;0.50;;
529;SDS011;251;48.704;9.210;2023-08-06T11:22:35;1.20;;;0.60;;
529;SDS011;251;48.704;9.210;2023-08-06T11:25:03;1.20;;;0.50;;
529;SDS011;251;48.704;9.210;2023-08-06T11:27:31;1.20;;;0.50;;
529;SDS011;251;48.704;9.210;2023-08-06T11:30:00;1.20;;;0.50;;
529;SDS011;251;48.704;9.210;2023-08-06T11:32:27;1.20;;;0.50;;
529;SDS011;251;48.704;9.210;2023-08-06T11:34:53;1.20;;;0.50;;
529;SDS011;251;48.704;9.210;2023-08-06T11:37:21;1.20;;;0.50;;
529;SDS011;251;48.704;9.210;2023-08-06T11:39:49;1.20;;;0.50;;
529;SDS011;251;48.704;9.210;2023-08-06T11:42:16;1.33;;;0.80;;
529;SDS011;251;48.704;9.210;2023-08-06T11:44:43;1.20;;;0.50;;
529;SDS011;251;48.704;9.210;2023-08-06T11:47:13;1.60;;;0.60;;
529;SDS011;251;48.704;9.210;2023-08-06T11:49:42;1.20;;;0.57;;
529;SDS011;251;48.704;9.210;2023-08-06T11:52:13;1.20;;;0.60;;
529;SDS011;251;48.704;9.210;2023-08-06T11:54:44;1.20;;;0.50;;
529;SDS011;251;48.704;9.210;2023-08-06T11:57:11;1.20;;;0.50;;
529;SDS011;251;48.704;9.210;2023-08-06T11:59:38;1.67;;;0.70;;
529;SDS011;251;48.704;9.210;2023-08-06T12:02:07;1.20;;;0.57;;
529;SDS011;251;48.704;9.210;2023-08-06T12:07:36;2.43;;;0.70;;
529;SDS011;251;48.704;9.210;2023-08-06T12:10:04;2.90;;;1.17;;
529;SDS011;251;48.704;9.210;2023-08-06T12:12:32;1.97;;;0.70;;
529;SDS011;251;48.704;9.210;2023-08-06T12:14:59;1.57;;;0.60;;
529;SDS011;251;48.704;9.210;2023-08-06T12:17:26;1.60;;;0.60;;
529;SDS011;251;48.704;9.210;2023-08-06T12:19:53;1.40;;;0.90;;
529;SDS011;251;48.704;9.210;2023-08-06T12:22:21;1.20;;;0.60;;
529;SDS011;251;48.704;9.210;2023-08-06T12:24:48;1.37;;;0.60;;
529;SDS011;251;48.704;9.210;2023-08-06T12:27:15;1.20;;;0.50;;
529;SDS011;251;48.704;9.210;2023-08-06T12:29:42;1.30;;;0.60;;
529;SDS011;251;48.704;9.210;2023-08-06T12:32:10;1.20;;;0.60;;
529;SDS011;251;48.704;9.210;2023-08-06T12:34:37;1.40;;;0.70;;
529;SDS011;251;48.704;9.210;2023-08-06T12:37:04;1.30;;;0.70;;
529;SDS011;251;48.704;9.210;2023-08-06T12:39:33;2.13;;;0.80;;
529;SDS011;251;48.704;9.210;2023-08-06T12:42:01;1.20;;;0.60;;
529;SDS011;251;48.704;9.210;2023-08-06T12:44:28;1.77;;;0.80;;
529;SDS011;251;48.704;9.210;2023-08-06T12:46:55;4.43;;;0.70;;
529;SDS011;251;48.704;9.210;2023-08-06T12:49:25;1.40;;;0.70;;
529;SDS011;251;48.704;9.210;2023-08-06T12:51:53;1.27;;;0.60;;
529;SDS011;251;48.704;9.210;2023-08-06T12:54:21;1.20;;;0.60;;
529;SDS011;251;48.704;9.210;2023-08-06T12:56:50;1.40;;;0.60;;
529;SDS011;251;48.704;9.210;2023-08-06T12:59:16;1.20;;;0.60;;
529;SDS011;251;48.704;9.210;2023-08-06T13:01:44;1.20;;;0.60;;
529;SDS011;251;48.704;9.210;2023-08-06T13:04:11;2.37;;;1.20;;
529;SDS011;251;48.704;9.210;2023-08-06T13:06:38;1.20;;;0.57;;
529;SDS011;251;48.704;9.210;2023-08-06T13:09:05;1.30;;;0.70;;
529;SDS011;251;48.704;9.210;2023-08-06T13:11:33;1.50;;;0.60;;
529;SDS011;251;48.704;9.210;2023-08-06T13:14:04;1.40;;;0.80;;
529;SDS011;251;48.704;9.210;2023-08-06T13:16:33;1.20;;;0.60;;
529;SDS011;251;48.704;9.210;2023-08-06T13:19:00;1.30;;;0.70;;
529;SDS011;251;48.704;9.210;2023-08-06T13:21:31;2.23;;;0.67;;
529;SDS011;251;48.704;9.210;2023-08-06T13:23:59;1.20;;;0.60;;
529;SDS011;251;48.704;9.210;2023-08-06T13:26:26;1.70;;;0.80;;
529;SDS011;251;48.704;9.210;2023-08-06T13:28:53;1.40;;;0.70;;
529;SDS011;251;48.704;9.210;2023-08-06T13:31:21;1.47;;;0.60;;
529;SDS011;251;48.704;9.210;2023-08-06T13:33:48;1.40;;;0.60;;
529;SDS011;251;48.704;9.210;2023-08-06T13:36:15;1.60;;;0.70;;
529;SDS011;251;48.704;9.210;2023-08-06T13:38:42;1.33;;;0.60;;
529;SDS011;251;48.704;9.210;2023-08-06T13:41:09;1.23;;;0.57;;
529;SDS011;251;48.704;9.210;2023-08-06T13:43:35;1.60;;;0.80;;
529;SDS011;251;48.704;9.210;2023-08-06T13:46:02;1.20;;;0.50;;
529;SDS011;251;48.704;9.210;2023-08-06T13:48:30;1.30;;;0.60;;
529;SDS011;251;48.704;9.210;2023-08-06T13:50:57;1.20;;;0.60;;
529;SDS011;251;48.704;9.210;2023-08-06T13:53:24;1.20;;;0.50;;
529;SDS011;251;48.704;9.210;2023-08-06T13:55:55;1.20;;;0.60;;
529;SDS011;251;48.704;9.210;2023-08-06T13:58:21;1.40;;;0.70;;
529;SDS011;251;48.704;9.210;2023-08-06T14:00:48;1.27;;;0.57;;
529;SDS011;251;48.704;9.210;2023-08-06T14:03:18;1.20;;;0.60;;
529;SDS011;251;48.704;9.210;2023-08-06T14:05:46;1.27;;;0.57;;
529;SDS011;251;48.704;9.210;2023-08-06T14:08:13;1.20;;;0.50;;
529;SDS011;251;48.704;9.210;2023-08-06T14:10:40;1.20;;;0.60;;
529;SDS011;251;48.704;9.210;2023-08-06T14:13:07;1.20;;;0.60;;
529;SDS011;251;48.704;9.210;2023-08-06T14:15:33;1.60;;;0.80;;
529;SDS011;251;48.704;9.210;2023-08-06T14:18:00;1.60;;;0.90;;
529;SDS011;251;48.704;9.210;2023-08-06T14:20:27;2.20;;;0.77;;
529;SDS011;251;48.704;9.210;2023-08-06T14:22:55;1.20;;;0.50;;
529;SDS011;251;48.704;9.210;2023-08-06T14:25:22;1.20;;;0.60;;
529;SDS011;251;48.704;9.210;2023-08-06T14:27:49;1.20;;;0.50;;
529;SDS011;251;48.704;9.210;2023-08-06T14:30:15;1.20;;;0.60;;
529;SDS011;251;48.704;9.210;2023-08-06T14:32:42;1.20;;;0.60;;
529;SDS011;251;48.704;9.210;2023-08-06T14:35:09;2.00;;;0.60;;
529;SDS011;251;48.704;9.210;2023-08-06T14:37:36;1.20;;;0.60;;
529;SDS011;251;48.704;9.210;2023-08-06T14:40:06;1.20;;;0.50;;
529;SDS011;251;48.704;9.210;2023-08-06T14:42:34;1.20;;;0.60;;
529;SDS011;251;48.704;9.210;2023-08-06T14:45:00;1.30;;;0.60;;
529;SDS011;251;48.704;9.210;2023-08-06T14:47:27;1.20;;;0.60;;
529;SDS011;251;48.704;9.210;2023-08-06T14:49:54;1.30;;;0.57;;
529;SDS011;251;48.704;9.210;2023-08-06T14:52:21;1.40;;;0.63;;
529;SDS011;251;48.704;9.210;2023-08-06T14:54:48;1.20;;;0.60;;
529;SDS011;251;48.704;9.210;2023-08-06T14:57:18;1.20;;;0.60;;
529;SDS011;251;48.704;9.210;2023-08-06T14:59:46;1.70;;;0.60;;
529;SDS011;251;48.704;9.210;2023-08-06T15:02:14;1.20;;;0.60;;
529;SDS011;251;48.704;9.210;2023-08-06T15:04:40;1.30;;;0.60;;
529;SDS011;251;48.704;9.210;2023-08-06T15:07:07;1.60;;;0.90;;
529;SDS011;251;48.704;9.210;2023-08-06T15:09:34;1.30;;;0.60;;
529;SDS011;251;48.704;9.210;2023-08-06T15:12:01;1.20;;;0.50;;
529;SDS011;251;48.704;9.210;2023-08-06T15:14:29;1.50;;;0.77;;
529;SDS011;251;48.704;9.210;2023-08-06T15:16:56;1.20;;;0.50;;
529;SDS011;251;48.704;9.210;2023-08-06T15:19:23;1.20;;;0.60;;
529;SDS011;251;48.704;9.210;2023-08-06T15:21:50;1.20;;;0.50;;
529;SDS011;251;48.704;9.210;2023-08-06T15:24:16;1.40;;;0.73;;
529;SDS011;251;48.704;9.210;2023-08-06T15:26:43;1.30;;;0.60;;
529;SDS011;251;48.704;9.210;2023-08-06T15:29:10;1.20;;;0.60;;
529;SDS011;251;48.704;9.210;2023-08-06T15:31:38;1.20;;;0.50;;
529;SDS011;251;48.704;9.210;2023-08-06T15:34:05;1.47;;;0.70;;
529;SDS011;251;48.704;9.210;2023-08-06T15:36:32;1.20;;;0.50;;
529;SDS011;251;48.704;9.210;2023-08-06T15:39:00;1.20;;;0.50;;
529;SDS011;251;48.704;9.210;2023-08-06T15:41:26;1.30;;;0.70;;
529;SDS011;251;48.704;9.210;2023-08-06T15:43:53;1.10;;;0.60;;
529;SDS011;251;48.704;9.210;2023-08-06T15:46:20;1.20;;;0.53;;
529;SDS011;251;48.704;9.210;2023-08-06T15:48:48;1.10;;;0.50;;
529;SDS011;251;48.704;9.210;2023-08-06T15:51:15;1.20;;;0.60;;
529;SDS011;251;48.704;9.210;2023-08-06T15:53:41;1.30;;;0.60;;